sensor_id;sensor_type;location;lat;lon;timestamp;P1;durP1;ratioP1;P2;durP2;ratioP2
5900;SDS011;2976;49.764;9.796;2023-07-02T00:02:23;3.93;;;3.60;;
5900;SDS011;2976;49.764;9.796;2023-07-02T00:04:48;5.13;;;3.90;;
5900;SDS011;2976;49.764;9.796;2023-07-02T00:07:14;5.20;;;3.43;;
5900;SDS011;2976;49.764;9.796;2023-07-02T00:09:40;4.87;;;4.47;;
5900;SDS011;2976;49.764;9.796;2023-07-02T00:12:06;4.37;;;3.93;;
5900;SDS011;2976;49.764;9.796;2023-07-02T00:14:32;5.57;;;3.70;;
5900;SDS011;2976;49.764;9.796;2023-07-02T00:16:58;5.67;;;3.70;;
5900;SDS011;2976;49.764;9.796;2023-07-02T00:19:24;3.70;;;3.40;;
5900;SDS011;2976;49.764;9.796;2023-07-02T00:21:49;4.80;;;3.50;;
5900;SDS011;2976;49.764;9.796;2023-07-02T00:24:15;3.50;;;3.20;;
5900;SDS011;2976;49.764;9.796;2023-07-02T00:26:41;4.07;;;3.60;;
5900;SDS011;2976;49.764;9.796;2023-07-02T00:29:07;3.80;;;3.50;;
5900;SDS011;2976;49.764;9.796;2023-07-02T00:31:34;3.57;;;3.37;;
5900;SDS011;2976;49.764;9.796;2023-07-02T00:34:00;3.80;;;3.50;;
5900;SDS011;2976;49.764;9.796;2023-07-02T00:36:27;3.80;;;3.40;;
5900;SDS011;2976;49.764;9.796;2023-07-02T00:38:56;3.67;;;3.40;;
5900;SDS011;2976;49.764;9.796;2023-07-02T00:41:22;2.97;;;2.77;;
5900;SDS011;2976;49.764;9.796;2023-07-02T00:43:48;3.17;;;2.10;;
5900;SDS011;2976;49.764;9.796;2023-07-02T00:46:15;3.70;;;2.60;;
5900;SDS011;2976;49.764;9.796;2023-07-02T00:48:48;3.37;;;3.13;;
5900;SDS011;2976;49.764;9.796;2023-07-02T00:51:17;3.73;;;3.43;;
5900;SDS011;2976;49.764;9.796;2023-07-02T00:53:45;3.10;;;2.80;;
5900;SDS011;2976;49.764;9.796;2023-07-02T00:56:11;4.70;;;2.90;;
5900;SDS011;2976;49.764;9.796;2023-07-02T00:58:38;4.77;;;3.10;;
5900;SDS011;2976;49.764;9.796;2023-07-02T01:01:05;3.20;;;2.90;;
5900;SDS011;2976;49.764;9.796;2023-07-02T01:03:31;3.83;;;3.07;;
5900;SDS011;2976;49.764;9.796;2023-07-02T01:05:58;2.80;;;2.60;;
5900;SDS011;2976;49.764;9.796;2023-07-02T01:08:24;2.90;;;2.70;;
5900;SDS011;2976;49.764;9.796;2023-07-02T01:10:50;2.90;;;2.50;;
5900;SDS011;2976;49.764;9.796;2023-07-02T01:13:17;2.97;;;2.60;;
5900;SDS011;2976;49.764;9.796;2023-07-02T01:15:44;2.83;;;2.63;;
5900;SDS011;2976;49.764;9.796;2023-07-02T01:18:11;3.33;;;3.03;;
5900;SDS011;2976;49.764;9.796;2023-07-02T01:20:38;2.73;;;2.17;;
5900;SDS011;2976;49.764;9.796;2023-07-02T01:23:04;2.60;;;2.40;;
5900;SDS011;2976;49.764;9.796;2023-07-02T01:25:30;6.10;;;2.77;;
5900;SDS011;2976;49.764;9.796;2023-07-02T01:27:56;2.60;;;2.40;;
5900;SDS011;2976;49.764;9.796;2023-07-02T01:30:23;7.50;;;3.03;;
5900;SDS011;2976;49.764;9.796;2023-07-02T01:32:49;2.60;;;2.37;;
5900;SDS011;2976;49.764;9.796;2023-07-02T01:35:15;2.37;;;2.23;;
5900;SDS011;2976;49.764;9.796;2023-07-02T01:37:41;2.40;;;2.30;;
5900;SDS011;2976;49.764;9.796;2023-07-02T01:40:07;8.53;;;3.17;;
5900;SDS011;2976;49.764;9.796;2023-07-02T01:42:33;2.70;;;2.50;;
5900;SDS011;2976;49.764;9.796;2023-07-02T01:44:59;2.77;;;2.47;;
5900;SDS011;2976;49.764;9.796;2023-07-02T01:47:24;5.17;;;2.73;;
5900;SDS011;2976;49.764;9.796;2023-07-02T01:49:50;3.50;;;2.73;;
5900;SDS011;2976;49.764;9.796;2023-07-02T01:52:16;2.73;;;2.43;;
5900;SDS011;2976;49.764;9.796;2023-07-02T01:54:42;4.07;;;2.27;;
5900;SDS011;2976;49.764;9.796;2023-07-02T01:57:08;3.00;;;2.70;;
5900;SDS011;2976;49.764;9.796;2023-07-02T01:59:34;3.17;;;2.30;;
5900;SDS011;2976;49.764;9.796;2023-07-02T02:01:59;4.40;;;2.77;;
5900;SDS011;2976;49.764;9.796;2023-07-02T02:04:25;2.80;;;2.43;;
5900;SDS011;2976;49.764;9.796;2023-07-02T02:06:51;4.17;;;2.60;;
5900;SDS011;2976;49.764;9.796;2023-07-02T02:09:17;5.90;;;2.83;;
5900;SDS011;2976;49.764;9.796;2023-07-02T02:11:44;4.10;;;2.57;;
5900;SDS011;2976;49.764;9.796;2023-07-02T02:14:14;3.90;;;2.50;;
5900;SDS011;2976;49.764;9.796;2023-07-02T02:16:40;4.30;;;2.50;;
5900;SDS011;2976;49.764;9.796;2023-07-02T02:19:07;3.10;;;2.90;;
5900;SDS011;2976;49.764;9.796;2023-07-02T02:21:32;2.30;;;2.20;;
5900;SDS011;2976;49.764;9.796;2023-07-02T02:23:58;2.63;;;2.23;;
5900;SDS011;2976;49.764;9.796;2023-07-02T02:26:23;3.53;;;2.23;;
5900;SDS011;2976;49.764;9.796;2023-07-02T02:28:50;4.90;;;2.50;;
5900;SDS011;2976;49.764;9.796;2023-07-02T02:31:16;3.63;;;2.20;;
5900;SDS011;2976;49.764;9.796;2023-07-02T02:33:42;2.73;;;2.37;;
5900;SDS011;2976;49.764;9.796;2023-07-02T02:36:08;4.23;;;2.27;;
5900;SDS011;2976;49.764;9.796;2023-07-02T02:38:34;3.63;;;2.40;;
5900;SDS011;2976;49.764;9.796;2023-07-02T02:40:59;5.93;;;2.17;;
5900;SDS011;2976;49.764;9.796;2023-07-02T02:43:27;2.27;;;2.07;;
5900;SDS011;2976;49.764;9.796;2023-07-02T02:45:53;2.27;;;2.07;;
5900;SDS011;2976;49.764;9.796;2023-07-02T02:48:18;5.57;;;2.47;;
5900;SDS011;2976;49.764;9.796;2023-07-02T02:50:44;5.23;;;2.27;;
5900;SDS011;2976;49.764;9.796;2023-07-02T02:53:10;8.67;;;2.20;;
5900;SDS011;2976;49.764;9.796;2023-07-02T02:55:36;3.10;;;2.10;;
5900;SDS011;2976;49.764;9.796;2023-07-02T02:58:02;1.80;;;1.67;;
5900;SDS011;2976;49.764;9.796;2023-07-02T03:00:28;2.70;;;2.07;;
5900;SDS011;2976;49.764;9.796;2023-07-02T03:02:53;2.93;;;2.40;;
5900;SDS011;2976;49.764;9.796;2023-07-02T03:05:20;3.40;;;1.80;;
5900;SDS011;2976;49.764;9.796;2023-07-02T03:07:46;4.23;;;1.87;;
5900;SDS011;2976;49.764;9.796;2023-07-02T03:10:11;5.37;;;2.00;;
5900;SDS011;2976;49.764;9.796;2023-07-02T03:12:37;3.37;;;2.00;;
5900;SDS011;2976;49.764;9.796;2023-07-02T03:15:03;3.40;;;2.10;;
5900;SDS011;2976;49.764;9.796;2023-07-02T03:17:28;3.13;;;2.10;;
5900;SDS011;2976;49.764;9.796;2023-07-02T03:19:54;2.70;;;2.50;;
5900;SDS011;2976;49.764;9.796;2023-07-02T03:22:19;3.53;;;2.30;;
5900;SDS011;2976;49.764;9.796;2023-07-02T03:24:45;4.70;;;1.97;;
5900;SDS011;2976;49.764;9.796;2023-07-02T03:27:11;3.20;;;2.43;;
5900;SDS011;2976;49.764;9.796;2023-07-02T03:29:36;3.50;;;2.33;;
5900;SDS011;2976;49.764;9.796;2023-07-02T03:32:03;3.70;;;2.30;;
5900;SDS011;2976;49.764;9.796;2023-07-02T03:34:29;2.00;;;1.80;;
5900;SDS011;2976;49.764;9.796;2023-07-02T03:36:54;2.23;;;2.03;;
5900;SDS011;2976;49.764;9.796;2023-07-02T03:39:20;3.47;;;2.40;;
5900;SDS011;2976;49.764;9.796;2023-07-02T03:41:46;3.10;;;2.33;;
5900;SDS011;2976;49.764;9.796;2023-07-02T03:44:11;2.97;;;2.53;;
5900;SDS011;2976;49.764;9.796;2023-07-02T03:46:37;3.03;;;2.40;;
5900;SDS011;2976;49.764;9.796;2023-07-02T03:49:03;4.70;;;2.47;;
5900;SDS011;2976;49.764;9.796;2023-07-02T03:51:29;2.73;;;1.97;;
5900;SDS011;2976;49.764;9.796;2023-07-02T03:53:55;2.93;;;2.53;;
5900;SDS011;2976;49.764;9.796;2023-07-02T03:56:20;2.50;;;2.00;;
5900;SDS011;2976;49.764;9.796;2023-07-02T03:58:46;4.43;;;2.03;;
5900;SDS011;2976;49.764;9.796;2023-07-02T04:01:12;4.90;;;2.30;;
5900;SDS011;2976;49.764;9.796;2023-07-02T04:03:38;5.00;;;2.40;;
5900;SDS011;2976;49.764;9.796;2023-07-02T04:06:03;2.77;;;2.23;;
5900;SDS011;2976;49.764;9.796;2023-07-02T04:08:32;6.90;;;2.27;;
5900;SDS011;2976;49.764;9.796;2023-07-02T04:10:59;5.83;;;2.67;;
5900;SDS011;2976;49.764;9.796;2023-07-02T04:13:24;10.80;;;3.60;;
5900;SDS011;2976;49.764;9.796;2023-07-02T04:15:50;4.47;;;3.10;;
5900;SDS011;2976;49.764;9.796;2023-07-02T04:18:16;4.20;;;2.90;;
5900;SDS011;2976;49.764;9.796;2023-07-02T04:20:41;3.53;;;2.93;;
5900;SDS011;2976;49.764;9.796;2023-07-02T04:23:07;5.37;;;2.90;;
5900;SDS011;2976;49.764;9.796;2023-07-02T04:25:33;10.63;;;3.17;;
5900;SDS011;2976;49.764;9.796;2023-07-02T04:27:58;6.33;;;3.57;;
5900;SDS011;2976;49.764;9.796;2023-07-02T04:30:24;4.90;;;3.00;;
5900;SDS011;2976;49.764;9.796;2023-07-02T04:32:51;6.77;;;3.17;;
5900;SDS011;2976;49.764;9.796;2023-07-02T04:35:17;8.67;;;3.03;;
5900;SDS011;2976;49.764;9.796;2023-07-02T04:37:43;7.87;;;3.80;;
5900;SDS011;2976;49.764;9.796;2023-07-02T04:40:08;4.13;;;3.00;;
5900;SDS011;2976;49.764;9.796;2023-07-02T04:42:36;6.33;;;3.23;;
5900;SDS011;2976;49.764;9.796;2023-07-02T04:45:05;10.50;;;3.80;;
5900;SDS011;2976;49.764;9.796;2023-07-02T04:47:31;8.73;;;3.63;;
5900;SDS011;2976;49.764;9.796;2023-07-02T04:49:57;9.10;;;3.60;;
5900;SDS011;2976;49.764;9.796;2023-07-02T04:52:23;5.53;;;3.93;;
5900;SDS011;2976;49.764;9.796;2023-07-02T04:54:49;6.60;;;3.70;;
5900;SDS011;2976;49.764;9.796;2023-07-02T04:57:15;4.47;;;3.67;;
5900;SDS011;2976;49.764;9.796;2023-07-02T04:59:41;9.23;;;4.43;;
5900;SDS011;2976;49.764;9.796;2023-07-02T05:02:07;5.60;;;3.80;;
5900;SDS011;2976;49.764;9.796;2023-07-02T05:04:33;5.93;;;4.13;;
5900;SDS011;2976;49.764;9.796;2023-07-02T05:06:59;6.33;;;3.80;;
5900;SDS011;2976;49.764;9.796;2023-07-02T05:09:25;8.07;;;3.80;;
5900;SDS011;2976;49.764;9.796;2023-07-02T05:11:50;9.30;;;5.07;;
5900;SDS011;2976;49.764;9.796;2023-07-02T05:14:16;12.23;;;4.70;;
5900;SDS011;2976;49.764;9.796;2023-07-02T05:16:41;9.40;;;4.63;;
5900;SDS011;2976;49.764;9.796;2023-07-02T05:19:07;11.00;;;5.80;;
5900;SDS011;2976;49.764;9.796;2023-07-02T05:21:32;10.37;;;4.67;;
5900;SDS011;2976;49.764;9.796;2023-07-02T05:23:58;12.50;;;4.57;;
5900;SDS011;2976;49.764;9.796;2023-07-02T05:26:24;10.70;;;5.10;;
5900;SDS011;2976;49.764;9.796;2023-07-02T05:28:51;8.77;;;5.60;;
5900;SDS011;2976;49.764;9.796;2023-07-02T05:31:16;12.23;;;5.13;;
5900;SDS011;2976;49.764;9.796;2023-07-02T05:33:42;8.30;;;5.53;;
5900;SDS011;2976;49.764;9.796;2023-07-02T05:36:07;9.57;;;5.57;;
5900;SDS011;2976;49.764;9.796;2023-07-02T05:38:33;13.20;;;5.53;;
5900;SDS011;2976;49.764;9.796;2023-07-02T05:40:58;9.90;;;5.17;;
5900;SDS011;2976;49.764;9.796;2023-07-02T05:43:24;8.97;;;5.33;;
5900;SDS011;2976;49.764;9.796;2023-07-02T05:45:50;9.17;;;4.97;;
5900;SDS011;2976;49.764;9.796;2023-07-02T05:48:17;13.43;;;6.03;;
5900;SDS011;2976;49.764;9.796;2023-07-02T05:50:43;6.90;;;4.93;;
5900;SDS011;2976;49.764;9.796;2023-07-02T05:53:08;9.17;;;4.73;;
5900;SDS011;2976;49.764;9.796;2023-07-02T05:55:35;11.30;;;4.67;;
5900;SDS011;2976;49.764;9.796;2023-07-02T05:58:01;10.67;;;5.70;;
5900;SDS011;2976;49.764;9.796;2023-07-02T06:00:28;7.20;;;4.37;;
5900;SDS011;2976;49.764;9.796;2023-07-02T06:02:54;12.07;;;4.80;;
5900;SDS011;2976;49.764;9.796;2023-07-02T06:05:19;9.37;;;5.33;;
5900;SDS011;2976;49.764;9.796;2023-07-02T06:07:45;9.23;;;5.60;;
5900;SDS011;2976;49.764;9.796;2023-07-02T06:10:10;10.43;;;5.80;;
5900;SDS011;2976;49.764;9.796;2023-07-02T06:12:36;14.47;;;5.90;;
5900;SDS011;2976;49.764;9.796;2023-07-02T06:15:02;9.30;;;5.73;;
5900;SDS011;2976;49.764;9.796;2023-07-02T06:17:28;13.50;;;5.70;;
5900;SDS011;2976;49.764;9.796;2023-07-02T06:19:55;11.17;;;6.93;;
5900;SDS011;2976;49.764;9.796;2023-07-02T06:22:21;10.27;;;5.40;;
5900;SDS011;2976;49.764;9.796;2023-07-02T06:24:47;8.93;;;5.63;;
5900;SDS011;2976;49.764;9.796;2023-07-02T06:27:13;13.40;;;6.67;;
5900;SDS011;2976;49.764;9.796;2023-07-02T06:29:38;13.60;;;7.50;;
5900;SDS011;2976;49.764;9.796;2023-07-02T06:32:04;8.60;;;6.33;;
5900;SDS011;2976;49.764;9.796;2023-07-02T06:34:30;13.23;;;6.60;;
5900;SDS011;2976;49.764;9.796;2023-07-02T06:36:55;13.87;;;7.10;;
5900;SDS011;2976;49.764;9.796;2023-07-02T06:39:21;13.80;;;7.20;;
5900;SDS011;2976;49.764;9.796;2023-07-02T06:41:46;16.70;;;6.93;;
5900;SDS011;2976;49.764;9.796;2023-07-02T06:44:12;13.20;;;6.73;;
5900;SDS011;2976;49.764;9.796;2023-07-02T06:46:37;12.80;;;6.90;;
5900;SDS011;2976;49.764;9.796;2023-07-02T06:49:03;9.00;;;6.10;;
5900;SDS011;2976;49.764;9.796;2023-07-02T06:51:28;14.60;;;7.40;;
5900;SDS011;2976;49.764;9.796;2023-07-02T06:53:54;10.17;;;5.97;;
5900;SDS011;2976;49.764;9.796;2023-07-02T06:56:20;13.03;;;6.87;;
5900;SDS011;2976;49.764;9.796;2023-07-02T06:58:45;9.13;;;5.80;;
5900;SDS011;2976;49.764;9.796;2023-07-02T07:01:11;8.90;;;6.20;;
5900;SDS011;2976;49.764;9.796;2023-07-02T07:03:37;15.50;;;7.27;;
5900;SDS011;2976;49.764;9.796;2023-07-02T07:06:02;10.37;;;6.70;;
5900;SDS011;2976;49.764;9.796;2023-07-02T07:08:28;11.77;;;6.53;;
5900;SDS011;2976;49.764;9.796;2023-07-02T07:10:54;11.73;;;7.60;;
5900;SDS011;2976;49.764;9.796;2023-07-02T07:13:20;14.83;;;7.60;;
5900;SDS011;2976;49.764;9.796;2023-07-02T07:15:46;13.80;;;7.00;;
5900;SDS011;2976;49.764;9.796;2023-07-02T07:18:11;14.50;;;7.10;;
5900;SDS011;2976;49.764;9.796;2023-07-02T07:20:38;10.73;;;7.40;;
5900;SDS011;2976;49.764;9.796;2023-07-02T07:23:05;20.93;;;8.07;;
5900;SDS011;2976;49.764;9.796;2023-07-02T07:25:31;13.37;;;6.90;;
5900;SDS011;2976;49.764;9.796;2023-07-02T07:27:57;14.07;;;6.87;;
5900;SDS011;2976;49.764;9.796;2023-07-02T07:30:24;9.50;;;6.10;;
5900;SDS011;2976;49.764;9.796;2023-07-02T07:32:50;10.13;;;6.10;;
5900;SDS011;2976;49.764;9.796;2023-07-02T07:35:17;11.37;;;6.50;;
5900;SDS011;2976;49.764;9.796;2023-07-02T07:37:43;10.47;;;7.43;;
5900;SDS011;2976;49.764;9.796;2023-07-02T07:40:09;10.80;;;6.90;;
5900;SDS011;2976;49.764;9.796;2023-07-02T07:42:35;10.63;;;6.80;;
5900;SDS011;2976;49.764;9.796;2023-07-02T07:45:02;9.27;;;6.70;;
5900;SDS011;2976;49.764;9.796;2023-07-02T07:47:28;13.63;;;6.93;;
5900;SDS011;2976;49.764;9.796;2023-07-02T07:49:53;10.50;;;7.60;;
5900;SDS011;2976;49.764;9.796;2023-07-02T07:52:20;11.47;;;7.43;;
5900;SDS011;2976;49.764;9.796;2023-07-02T07:54:45;13.33;;;7.73;;
5900;SDS011;2976;49.764;9.796;2023-07-02T07:57:11;13.70;;;8.10;;
5900;SDS011;2976;49.764;9.796;2023-07-02T07:59:36;11.57;;;7.23;;
5900;SDS011;2976;49.764;9.796;2023-07-02T08:02:02;18.13;;;8.53;;
5900;SDS011;2976;49.764;9.796;2023-07-02T08:04:28;14.60;;;7.40;;
5900;SDS011;2976;49.764;9.796;2023-07-02T08:06:54;20.03;;;9.50;;
5900;SDS011;2976;49.764;9.796;2023-07-02T08:09:20;13.33;;;6.70;;
5900;SDS011;2976;49.764;9.796;2023-07-02T08:11:46;13.63;;;7.17;;
5900;SDS011;2976;49.764;9.796;2023-07-02T08:14:12;13.53;;;7.83;;
5900;SDS011;2976;49.764;9.796;2023-07-02T08:16:38;12.57;;;6.97;;
5900;SDS011;2976;49.764;9.796;2023-07-02T08:19:03;13.90;;;7.87;;
5900;SDS011;2976;49.764;9.796;2023-07-02T08:21:30;12.70;;;7.57;;
5900;SDS011;2976;49.764;9.796;2023-07-02T08:23:55;12.53;;;7.70;;
5900;SDS011;2976;49.764;9.796;2023-07-02T08:26:22;15.23;;;7.87;;
5900;SDS011;2976;49.764;9.796;2023-07-02T08:28:48;13.93;;;8.00;;
5900;SDS011;2976;49.764;9.796;2023-07-02T08:31:13;16.20;;;7.73;;
5900;SDS011;2976;49.764;9.796;2023-07-02T08:33:39;13.87;;;8.27;;
5900;SDS011;2976;49.764;9.796;2023-07-02T08:36:05;19.63;;;8.20;;
5900;SDS011;2976;49.764;9.796;2023-07-02T08:38:31;14.20;;;7.83;;
5900;SDS011;2976;49.764;9.796;2023-07-02T08:40:56;18.70;;;7.80;;
5900;SDS011;2976;49.764;9.796;2023-07-02T08:43:22;13.43;;;8.00;;
5900;SDS011;2976;49.764;9.796;2023-07-02T08:45:50;18.87;;;7.20;;
5900;SDS011;2976;49.764;9.796;2023-07-02T08:48:16;9.83;;;6.63;;
5900;SDS011;2976;49.764;9.796;2023-07-02T08:50:47;16.10;;;6.87;;
5900;SDS011;2976;49.764;9.796;2023-07-02T08:53:14;12.20;;;7.10;;
5900;SDS011;2976;49.764;9.796;2023-07-02T08:55:40;11.03;;;7.20;;
5900;SDS011;2976;49.764;9.796;2023-07-02T08:58:05;15.23;;;7.70;;
5900;SDS011;2976;49.764;9.796;2023-07-02T09:00:31;11.10;;;7.13;;
5900;SDS011;2976;49.764;9.796;2023-07-02T09:03:12;8.17;;;6.47;;
5900;SDS011;2976;49.764;9.796;2023-07-02T09:05:51;11.20;;;6.83;;
5900;SDS011;2976;49.764;9.796;2023-07-02T09:08:24;10.80;;;6.80;;
5900;SDS011;2976;49.764;9.796;2023-07-02T09:10:50;10.00;;;6.30;;
5900;SDS011;2976;49.764;9.796;2023-07-02T09:13:15;11.10;;;6.93;;
5900;SDS011;2976;49.764;9.796;2023-07-02T09:15:41;12.50;;;6.80;;
5900;SDS011;2976;49.764;9.796;2023-07-02T09:18:17;14.00;;;7.80;;
5900;SDS011;2976;49.764;9.796;2023-07-02T09:20:43;11.90;;;6.70;;
5900;SDS011;2976;49.764;9.796;2023-07-02T09:23:09;10.90;;;6.53;;
5900;SDS011;2976;49.764;9.796;2023-07-02T09:25:38;9.47;;;6.60;;
5900;SDS011;2976;49.764;9.796;2023-07-02T09:30:54;8.93;;;5.63;;
5900;SDS011;2976;49.764;9.796;2023-07-02T09:33:24;11.93;;;7.27;;
5900;SDS011;2976;49.764;9.796;2023-07-02T09:35:51;10.80;;;6.17;;
5900;SDS011;2976;49.764;9.796;2023-07-02T09:38:17;10.90;;;5.53;;
5900;SDS011;2976;49.764;9.796;2023-07-02T09:40:49;12.20;;;6.67;;
5900;SDS011;2976;49.764;9.796;2023-07-02T09:43:15;9.03;;;6.07;;
5900;SDS011;2976;49.764;9.796;2023-07-02T09:45:43;7.93;;;6.33;;
5900;SDS011;2976;49.764;9.796;2023-07-02T09:48:10;12.13;;;6.20;;
5900;SDS011;2976;49.764;9.796;2023-07-02T09:50:39;9.87;;;6.50;;
5900;SDS011;2976;49.764;9.796;2023-07-02T09:53:06;8.07;;;5.27;;
5900;SDS011;2976;49.764;9.796;2023-07-02T09:55:31;7.93;;;5.90;;
5900;SDS011;2976;49.764;9.796;2023-07-02T09:57:58;9.67;;;5.27;;
5900;SDS011;2976;49.764;9.796;2023-07-02T10:00:23;7.17;;;5.57;;
5900;SDS011;2976;49.764;9.796;2023-07-02T10:02:49;12.73;;;5.77;;
5900;SDS011;2976;49.764;9.796;2023-07-02T10:05:31;9.60;;;5.87;;
5900;SDS011;2976;49.764;9.796;2023-07-02T10:07:58;11.40;;;5.63;;
5900;SDS011;2976;49.764;9.796;2023-07-02T10:10:36;8.93;;;5.93;;
5900;SDS011;2976;49.764;9.796;2023-07-02T10:13:02;10.23;;;6.30;;
5900;SDS011;2976;49.764;9.796;2023-07-02T10:15:28;11.07;;;6.63;;
5900;SDS011;2976;49.764;9.796;2023-07-02T10:17:57;9.20;;;5.80;;
5900;SDS011;2976;49.764;9.796;2023-07-02T10:23:06;10.37;;;6.63;;
5900;SDS011;2976;49.764;9.796;2023-07-02T10:25:35;9.57;;;6.20;;
5900;SDS011;2976;49.764;9.796;2023-07-02T10:28:14;9.63;;;7.10;;
5900;SDS011;2976;49.764;9.796;2023-07-02T10:30:40;10.00;;;5.70;;
5900;SDS011;2976;49.764;9.796;2023-07-02T10:33:07;8.70;;;5.67;;
5900;SDS011;2976;49.764;9.796;2023-07-02T10:35:34;8.40;;;6.13;;
5900;SDS011;2976;49.764;9.796;2023-07-02T10:38:00;10.70;;;5.73;;
5900;SDS011;2976;49.764;9.796;2023-07-02T10:40:26;11.90;;;7.13;;
5900;SDS011;2976;49.764;9.796;2023-07-02T10:42:52;14.63;;;6.97;;
5900;SDS011;2976;49.764;9.796;2023-07-02T10:45:18;10.40;;;6.50;;
5900;SDS011;2976;49.764;9.796;2023-07-02T10:47:45;14.77;;;6.43;;
5900;SDS011;2976;49.764;9.796;2023-07-02T10:52:43;10.60;;;6.83;;
5900;SDS011;2976;49.764;9.796;2023-07-02T10:55:09;13.73;;;7.70;;
5900;SDS011;2976;49.764;9.796;2023-07-02T10:57:35;10.63;;;7.30;;
5900;SDS011;2976;49.764;9.796;2023-07-02T11:00:04;11.20;;;7.53;;
5900;SDS011;2976;49.764;9.796;2023-07-02T11:02:39;11.00;;;6.87;;
5900;SDS011;2976;49.764;9.796;2023-07-02T11:05:05;9.20;;;6.63;;
5900;SDS011;2976;49.764;9.796;2023-07-02T11:07:32;10.63;;;7.20;;
5900;SDS011;2976;49.764;9.796;2023-07-02T11:09:58;13.20;;;7.43;;
5900;SDS011;2976;49.764;9.796;2023-07-02T11:12:30;12.73;;;7.67;;
5900;SDS011;2976;49.764;9.796;2023-07-02T11:15:06;16.60;;;7.93;;
5900;SDS011;2976;49.764;9.796;2023-07-02T11:17:36;10.10;;;7.07;;
5900;SDS011;2976;49.764;9.796;2023-07-02T11:20:02;16.27;;;8.50;;
5900;SDS011;2976;49.764;9.796;2023-07-02T11:22:30;18.40;;;8.90;;
5900;SDS011;2976;49.764;9.796;2023-07-02T11:27:39;14.50;;;8.77;;
5900;SDS011;2976;49.764;9.796;2023-07-02T11:30:05;15.10;;;8.73;;
5900;SDS011;2976;49.764;9.796;2023-07-02T11:32:34;15.33;;;9.20;;
5900;SDS011;2976;49.764;9.796;2023-07-02T11:35:11;15.67;;;8.80;;
5900;SDS011;2976;49.764;9.796;2023-07-02T11:37:37;15.40;;;9.30;;
5900;SDS011;2976;49.764;9.796;2023-07-02T11:40:02;12.90;;;8.30;;
5900;SDS011;2976;49.764;9.796;2023-07-02T11:42:29;13.97;;;8.00;;
5900;SDS011;2976;49.764;9.796;2023-07-02T11:44:55;16.30;;;8.77;;
5900;SDS011;2976;49.764;9.796;2023-07-02T11:47:20;16.50;;;8.70;;
5900;SDS011;2976;49.764;9.796;2023-07-02T11:49:46;20.40;;;9.00;;
5900;SDS011;2976;49.764;9.796;2023-07-02T11:52:11;13.10;;;8.20;;
5900;SDS011;2976;49.764;9.796;2023-07-02T11:54:38;14.33;;;8.77;;
5900;SDS011;2976;49.764;9.796;2023-07-02T11:57:04;16.33;;;7.70;;
5900;SDS011;2976;49.764;9.796;2023-07-02T11:59:30;11.73;;;8.33;;
5900;SDS011;2976;49.764;9.796;2023-07-02T12:01:56;14.20;;;8.80;;
5900;SDS011;2976;49.764;9.796;2023-07-02T12:04:21;15.40;;;8.03;;
5900;SDS011;2976;49.764;9.796;2023-07-02T12:06:47;16.10;;;9.43;;
5900;SDS011;2976;49.764;9.796;2023-07-02T12:09:12;18.10;;;8.50;;
5900;SDS011;2976;49.764;9.796;2023-07-02T12:11:38;12.27;;;8.30;;
5900;SDS011;2976;49.764;9.796;2023-07-02T12:14:04;12.07;;;7.77;;
5900;SDS011;2976;49.764;9.796;2023-07-02T12:16:29;10.57;;;7.47;;
5900;SDS011;2976;49.764;9.796;2023-07-02T12:18:55;11.47;;;8.10;;
5900;SDS011;2976;49.764;9.796;2023-07-02T12:21:20;14.03;;;8.70;;
5900;SDS011;2976;49.764;9.796;2023-07-02T12:23:46;18.83;;;7.70;;
5900;SDS011;2976;49.764;9.796;2023-07-02T12:26:12;16.43;;;9.60;;
5900;SDS011;2976;49.764;9.796;2023-07-02T12:28:37;17.20;;;8.73;;
5900;SDS011;2976;49.764;9.796;2023-07-02T12:31:03;15.60;;;9.17;;
5900;SDS011;2976;49.764;9.796;2023-07-02T12:33:29;12.13;;;8.73;;
5900;SDS011;2976;49.764;9.796;2023-07-02T12:35:54;16.30;;;9.57;;
5900;SDS011;2976;49.764;9.796;2023-07-02T12:38:20;18.23;;;9.40;;
5900;SDS011;2976;49.764;9.796;2023-07-02T12:40:45;17.00;;;9.83;;
5900;SDS011;2976;49.764;9.796;2023-07-02T12:43:11;11.80;;;8.53;;
5900;SDS011;2976;49.764;9.796;2023-07-02T12:45:37;24.03;;;8.70;;
5900;SDS011;2976;49.764;9.796;2023-07-02T12:48:04;14.43;;;9.23;;
5900;SDS011;2976;49.764;9.796;2023-07-02T12:50:30;18.33;;;10.13;;
5900;SDS011;2976;49.764;9.796;2023-07-02T12:52:56;14.40;;;8.87;;
5900;SDS011;2976;49.764;9.796;2023-07-02T12:55:21;20.50;;;8.90;;
5900;SDS011;2976;49.764;9.796;2023-07-02T12:57:47;16.37;;;9.13;;
5900;SDS011;2976;49.764;9.796;2023-07-02T13:00:13;12.87;;;8.47;;
5900;SDS011;2976;49.764;9.796;2023-07-02T13:02:38;15.63;;;9.23;;
5900;SDS011;2976;49.764;9.796;2023-07-02T13:05:04;17.80;;;9.83;;
5900;SDS011;2976;49.764;9.796;2023-07-02T13:07:30;14.90;;;9.70;;
5900;SDS011;2976;49.764;9.796;2023-07-02T13:09:56;15.67;;;8.77;;
5900;SDS011;2976;49.764;9.796;2023-07-02T13:12:21;18.00;;;10.93;;
5900;SDS011;2976;49.764;9.796;2023-07-02T13:14:47;17.37;;;10.80;;
5900;SDS011;2976;49.764;9.796;2023-07-02T13:17:12;21.43;;;11.60;;
5900;SDS011;2976;49.764;9.796;2023-07-02T13:19:38;20.03;;;11.07;;
5900;SDS011;2976;49.764;9.796;2023-07-02T13:22:03;25.10;;;10.50;;
5900;SDS011;2976;49.764;9.796;2023-07-02T13:24:33;20.80;;;10.47;;
5900;SDS011;2976;49.764;9.796;2023-07-02T13:27:01;17.03;;;10.97;;
5900;SDS011;2976;49.764;9.796;2023-07-02T13:29:28;18.77;;;10.43;;
5900;SDS011;2976;49.764;9.796;2023-07-02T13:31:54;18.97;;;10.80;;
5900;SDS011;2976;49.764;9.796;2023-07-02T13:34:19;18.17;;;11.50;;
5900;SDS011;2976;49.764;9.796;2023-07-02T13:36:45;17.63;;;10.47;;
5900;SDS011;2976;49.764;9.796;2023-07-02T13:39:10;19.80;;;11.23;;
5900;SDS011;2976;49.764;9.796;2023-07-02T13:41:36;19.20;;;11.50;;
5900;SDS011;2976;49.764;9.796;2023-07-02T13:44:02;19.47;;;10.97;;
5900;SDS011;2976;49.764;9.796;2023-07-02T13:46:27;17.03;;;11.43;;
5900;SDS011;2976;49.764;9.796;2023-07-02T13:48:53;19.00;;;12.07;;
5900;SDS011;2976;49.764;9.796;2023-07-02T13:51:18;19.30;;;11.57;;
5900;SDS011;2976;49.764;9.796;2023-07-02T13:53:44;20.17;;;10.57;;
5900;SDS011;2976;49.764;9.796;2023-07-02T13:56:10;19.57;;;12.07;;
5900;SDS011;2976;49.764;9.796;2023-07-02T14:01:19;23.67;;;10.80;;
5900;SDS011;2976;49.764;9.796;2023-07-02T14:03:45;21.00;;;11.03;;
5900;SDS011;2976;49.764;9.796;2023-07-02T14:06:10;21.03;;;11.27;;
5900;SDS011;2976;49.764;9.796;2023-07-02T14:08:36;23.23;;;12.00;;
5900;SDS011;2976;49.764;9.796;2023-07-02T14:11:01;18.97;;;11.90;;
5900;SDS011;2976;49.764;9.796;2023-07-02T14:13:27;22.67;;;12.90;;
5900;SDS011;2976;49.764;9.796;2023-07-02T14:15:53;19.30;;;12.00;;
5900;SDS011;2976;49.764;9.796;2023-07-02T14:18:18;20.00;;;11.90;;
5900;SDS011;2976;49.764;9.796;2023-07-02T14:20:44;16.30;;;11.13;;
5900;SDS011;2976;49.764;9.796;2023-07-02T14:23:09;21.73;;;11.60;;
5900;SDS011;2976;49.764;9.796;2023-07-02T14:25:35;21.13;;;11.90;;
5900;SDS011;2976;49.764;9.796;2023-07-02T14:28:01;19.90;;;12.13;;
5900;SDS011;2976;49.764;9.796;2023-07-02T14:30:26;25.93;;;13.83;;
5900;SDS011;2976;49.764;9.796;2023-07-02T14:32:52;22.20;;;11.77;;
5900;SDS011;2976;49.764;9.796;2023-07-02T14:35:18;25.27;;;12.87;;
5900;SDS011;2976;49.764;9.796;2023-07-02T14:37:47;24.60;;;12.90;;
5900;SDS011;2976;49.764;9.796;2023-07-02T14:40:12;19.83;;;12.80;;
5900;SDS011;2976;49.764;9.796;2023-07-02T14:42:39;22.13;;;12.90;;
5900;SDS011;2976;49.764;9.796;2023-07-02T14:45:04;22.77;;;11.60;;
5900;SDS011;2976;49.764;9.796;2023-07-02T14:47:30;23.37;;;12.30;;
5900;SDS011;2976;49.764;9.796;2023-07-02T14:49:56;16.77;;;11.50;;
5900;SDS011;2976;49.764;9.796;2023-07-02T14:52:21;19.63;;;11.70;;
5900;SDS011;2976;49.764;9.796;2023-07-02T14:54:47;20.57;;;11.87;;
5900;SDS011;2976;49.764;9.796;2023-07-02T14:57:13;19.43;;;11.27;;
5900;SDS011;2976;49.764;9.796;2023-07-02T14:59:39;24.27;;;12.40;;
5900;SDS011;2976;49.764;9.796;2023-07-02T15:02:06;24.43;;;12.47;;
5900;SDS011;2976;49.764;9.796;2023-07-02T15:04:31;27.17;;;11.43;;
5900;SDS011;2976;49.764;9.796;2023-07-02T15:06:57;20.23;;;12.00;;
5900;SDS011;2976;49.764;9.796;2023-07-02T15:09:22;21.50;;;12.13;;
5900;SDS011;2976;49.764;9.796;2023-07-02T15:11:48;20.23;;;11.40;;
5900;SDS011;2976;49.764;9.796;2023-07-02T15:14:13;21.70;;;11.10;;